LKTRUT weather

Trutnov
Trutnov, Hradec Králové Region, Czechia

Public forecast

Using degrees Celsius for public forecast. Weather courtesy of forecast.io.

METAR (pilot weather report)

Closest report is Pardubice Airport, 33.6 nm (62.3 km) S. Retrieved 2019/07/18 00:00 UTC (9 minutes ago):

LKPD 180000Z VRB02KT CAVOK 11/10 Q1013 RMK BLU

TAF (pilot weather forecast)

Closest forecast is Pardubice Airport, 33.6 nm (62.3 km) S. Retrieved 2019/07/18 00:05 UTC (4 minutes ago):

TAF LKPD 172300Z 1800/1824 09004KT CAVOK BECMG 1807/1809 SCT035 PROB30 TEMPO 1810/1816 04010KT 6000 SHRA SCT035TCU BECMG 1812/1814 CAVOK